createdAt,value
2019-02-22T00:00:41.822Z,16.02
2019-02-22T00:03:10.156Z,14.35
2019-02-22T00:05:38.375Z,16.17
2019-02-22T00:08:06.892Z,18.98
2019-02-22T00:10:35.121Z,22.90
2019-02-22T00:13:03.356Z,17.05
2019-02-22T00:15:31.584Z,15.85
2019-02-22T00:18:00.148Z,17.77
2019-02-22T00:20:28.403Z,18.20
2019-02-22T00:22:56.644Z,18.23
2019-02-22T00:25:24.890Z,15.48
2019-02-22T00:27:53.128Z,16.23
2019-02-22T00:30:21.626Z,15.50
2019-02-22T00:32:49.989Z,19.57
2019-02-22T00:35:18.277Z,15.53
2019-02-22T00:37:46.512Z,17.15
2019-02-22T00:40:15.065Z,14.90
2019-02-22T00:42:43.295Z,17.73
2019-02-22T00:45:11.529Z,17.30
2019-02-22T00:47:40.032Z,18.45
2019-02-22T00:50:08.484Z,19.15
2019-02-22T00:52:36.744Z,15.48
2019-02-22T00:55:05.624Z,17.55
2019-02-22T00:57:33.868Z,19.35
2019-02-22T01:00:02.104Z,17.20
2019-02-22T01:02:30.517Z,15.95
2019-02-22T01:04:59.080Z,19.80
2019-02-22T01:07:27.573Z,18.85
2019-02-22T01:09:56.168Z,17.40
2019-02-22T01:12:24.411Z,15.32
2019-02-22T01:14:52.635Z,19.32
2019-02-22T01:17:20.855Z,20.88
2019-02-22T01:19:49.093Z,19.02
2019-02-22T01:22:17.316Z,21.60
2019-02-22T01:24:45.556Z,20.30
2019-02-22T01:27:14.098Z,19.52
2019-02-22T01:29:42.332Z,18.98
2019-02-22T01:32:10.557Z,15.60
2019-02-22T01:34:38.792Z,20.95
2019-02-22T01:37:07.348Z,16.82
2019-02-22T01:39:35.587Z,18.73
2019-02-22T01:42:03.799Z,17.00
2019-02-22T01:44:32.039Z,21.07
2019-02-22T01:47:00.431Z,16.77
2019-02-22T01:49:28.672Z,16.70
2019-02-22T01:51:56.900Z,20.00
2019-02-22T01:54:25.140Z,17.45
2019-02-22T01:56:53.365Z,18.65
2019-02-22T01:59:21.844Z,17.60
2019-02-22T02:01:50.339Z,19.55
2019-02-22T02:04:18.575Z,18.90
2019-02-22T02:06:46.805Z,19.80
2019-02-22T02:09:15.034Z,17.67
2019-02-22T02:11:43.597Z,20.80
2019-02-22T02:14:11.827Z,21.52
2019-02-22T02:16:40.383Z,20.02
2019-02-22T02:19:08.895Z,18.65
2019-02-22T02:21:37.129Z,17.10
2019-02-22T02:24:05.357Z,19.85
2019-02-22T02:26:33.580Z,20.90
2019-02-22T02:29:01.866Z,18.05
2019-02-22T02:31:30.124Z,20.88
2019-02-22T02:33:58.617Z,20.08
2019-02-22T02:36:26.841Z,21.42
2019-02-22T02:38:55.076Z,21.02
2019-02-22T02:41:23.308Z,23.12
2019-02-22T02:43:51.547Z,18.70
2019-02-22T02:46:19.877Z,20.62
2019-02-22T02:48:48.185Z,25.27
2019-02-22T02:51:16.613Z,21.25
2019-02-22T02:53:44.919Z,19.37
2019-02-22T02:56:13.165Z,18.00
2019-02-22T02:58:41.713Z,20.62
2019-02-22T03:01:09.945Z,18.17
2019-02-22T03:03:38.499Z,20.37
2019-02-22T03:06:20.742Z,17.73
2019-02-22T03:08:48.968Z,20.48
2019-02-22T03:11:21.004Z,21.15
2019-02-22T03:13:47.180Z,21.87
2019-02-22T03:16:16.021Z,17.37
2019-02-22T03:18:44.256Z,20.23
2019-02-22T03:21:12.480Z,16.67
2019-02-22T03:23:40.719Z,18.87
2019-02-22T03:26:11.674Z,18.87
2019-02-22T03:28:40.230Z,22.90
2019-02-22T03:31:08.498Z,21.07
2019-02-22T03:33:36.942Z,17.37
2019-02-22T03:36:05.504Z,18.77
2019-02-22T03:38:33.738Z,19.77
2019-02-22T03:41:02.289Z,17.87
2019-02-22T03:43:30.518Z,18.27
2019-02-22T03:45:58.757Z,18.20
2019-02-22T03:48:26.993Z,19.90
2019-02-22T03:50:55.224Z,17.17
2019-02-22T03:53:25.100Z,19.77
2019-02-22T03:55:53.337Z,17.57
2019-02-22T03:58:21.575Z,17.20
2019-02-22T04:00:49.805Z,17.92
2019-02-22T04:03:18.335Z,19.62
2019-02-22T04:05:46.825Z,17.05
2019-02-22T04:08:15.048Z,16.45
2019-02-22T04:10:43.604Z,19.30
2019-02-22T04:13:11.830Z,17.87
2019-02-22T04:15:40.122Z,18.55
2019-02-22T04:18:08.677Z,25.88
2019-02-22T04:20:37.006Z,17.05
2019-02-22T04:23:05.561Z,16.87
2019-02-22T04:25:34.176Z,16.85
2019-02-22T04:28:02.403Z,17.65
2019-02-22T04:30:30.644Z,21.93
2019-02-22T04:32:59.120Z,16.23
2019-02-22T04:35:27.642Z,17.60
2019-02-22T04:37:56.108Z,20.27
2019-02-22T04:40:24.609Z,15.35
2019-02-22T04:42:53.110Z,17.92
2019-02-22T04:45:21.354Z,16.60
2019-02-22T04:47:49.904Z,19.87
2019-02-22T04:50:18.128Z,19.32
2019-02-22T04:52:46.348Z,18.50
2019-02-22T04:55:14.581Z,20.95
2019-02-22T04:57:42.813Z,20.40
2019-02-22T05:00:11.041Z,20.32
2019-02-22T05:02:39.512Z,15.00
2019-02-22T05:05:07.753Z,18.42
2019-02-22T05:07:35.980Z,17.45
2019-02-22T05:10:04.766Z,17.50
2019-02-22T05:12:33.290Z,17.65
2019-02-22T05:15:11.989Z,24.50
2019-02-22T05:17:31.483Z,17.82
2019-02-22T05:19:59.716Z,18.98
2019-02-22T05:22:27.951Z,16.45
2019-02-22T05:24:56.191Z,18.27
2019-02-22T05:27:24.665Z,18.02
2019-02-22T05:29:53.234Z,16.45
2019-02-22T05:32:21.455Z,17.35
2019-02-22T05:34:49.694Z,19.20
2019-02-22T05:37:18.233Z,22.70
2019-02-22T05:39:46.465Z,20.77
2019-02-22T05:42:22.626Z,19.32
2019-02-22T05:44:44.665Z,17.98
2019-02-22T05:47:13.224Z,22.10
2019-02-22T05:49:41.447Z,21.95
2019-02-22T05:52:09.709Z,19.48
2019-02-22T05:54:38.201Z,23.18
2019-02-22T05:57:06.436Z,18.98
2019-02-22T05:59:34.987Z,19.90
2019-02-22T06:02:03.477Z,20.27
2019-02-22T06:04:31.978Z,20.32
2019-02-22T06:07:00.227Z,21.60
2019-02-22T06:09:28.448Z,19.90
2019-02-22T06:11:56.943Z,21.20
2019-02-22T06:14:25.178Z,20.17
2019-02-22T06:16:53.721Z,25.52
2019-02-22T06:19:21.948Z,21.45
2019-02-22T06:21:50.188Z,21.77
2019-02-22T06:24:18.696Z,24.95
2019-02-22T06:26:47.184Z,24.75
2019-02-22T06:29:15.483Z,23.20
2019-02-22T06:31:44.076Z,21.52
2019-02-22T06:34:12.567Z,24.82
2019-02-22T06:36:40.797Z,23.32
2019-02-22T06:39:09.352Z,27.20
2019-02-22T06:41:37.592Z,19.60
2019-02-22T06:44:05.821Z,24.72
2019-02-22T06:46:34.416Z,23.67
2019-02-22T06:49:02.926Z,23.15
2019-02-22T06:51:31.151Z,23.25
2019-02-22T06:53:59.382Z,23.77
2019-02-22T06:56:27.914Z,24.52
2019-02-22T06:58:56.208Z,23.85
2019-02-22T07:01:24.475Z,22.67
2019-02-22T07:03:52.753Z,26.35
2019-02-22T07:06:21.240Z,26.10
2019-02-22T07:08:49.742Z,23.20
2019-02-22T07:11:22.296Z,24.72
2019-02-22T07:13:50.524Z,27.75
2019-02-22T07:16:19.013Z,28.42
2019-02-22T07:18:49.837Z,31.55
2019-02-22T07:21:17.272Z,25.77
2019-02-22T07:23:45.826Z,28.23
2019-02-22T07:26:14.312Z,28.00
2019-02-22T07:28:42.541Z,28.20
2019-02-22T07:31:10.774Z,29.92
2019-02-22T07:33:39.279Z,30.60
2019-02-22T07:36:07.503Z,32.00
2019-02-22T07:38:36.069Z,29.12
2019-02-22T07:41:04.586Z,28.30
2019-02-22T07:43:32.818Z,26.60
2019-02-22T07:46:01.364Z,29.70
2019-02-22T07:48:29.840Z,30.02
2019-02-22T07:50:58.555Z,26.55
2019-02-22T07:53:26.992Z,25.95
2019-02-22T07:55:55.459Z,29.25
2019-02-22T07:58:23.779Z,35.58
2019-02-22T08:00:52.087Z,37.80
2019-02-22T08:03:20.609Z,34.13
2019-02-22T08:05:49.105Z,36.00
2019-02-22T08:08:17.594Z,34.35
2019-02-22T08:10:45.821Z,31.62
2019-02-22T08:13:19.731Z,34.70
2019-02-22T08:15:44.405Z,32.25
2019-02-22T08:18:12.708Z,29.50
2019-02-22T08:20:40.936Z,34.45
2019-02-22T08:23:09.468Z,30.65
2019-02-22T08:25:37.698Z,39.67
2019-02-22T08:28:05.937Z,34.35
2019-02-22T08:30:34.408Z,34.58
2019-02-22T08:33:02.768Z,33.18
2019-02-22T08:35:31.330Z,34.85
2019-02-22T08:37:59.566Z,37.55
2019-02-22T08:40:27.792Z,40.90
2019-02-22T08:42:56.032Z,34.53
2019-02-22T08:45:24.788Z,39.50
2019-02-22T08:47:53.293Z,40.52
2019-02-22T08:50:21.581Z,34.45
2019-02-22T08:52:49.906Z,31.73
2019-02-22T08:55:18.116Z,36.48
2019-02-22T08:57:46.356Z,37.55
2019-02-22T09:00:14.949Z,37.28
2019-02-22T09:02:43.180Z,34.90
2019-02-22T09:05:11.644Z,37.28
2019-02-22T09:07:39.884Z,36.53
2019-02-22T09:10:10.564Z,34.98
2019-02-22T09:12:38.797Z,38.85
2019-02-22T09:15:09.202Z,36.55
2019-02-22T09:17:37.435Z,34.33
2019-02-22T09:20:10.968Z,33.60
2019-02-22T09:22:39.209Z,36.68
2019-02-22T09:25:07.440Z,36.95
2019-02-22T09:27:35.950Z,37.33
2019-02-22T09:30:06.617Z,35.33
2019-02-22T09:32:34.856Z,33.50
2019-02-22T09:35:03.576Z,35.20
2019-02-22T09:37:31.804Z,32.33
2019-02-22T09:40:00.045Z,31.12
2019-02-22T09:42:28.561Z,33.88
2019-02-22T09:44:56.797Z,33.05
2019-02-22T09:47:25.328Z,29.75
2019-02-22T09:49:53.576Z,35.50
2019-02-22T09:52:22.652Z,30.20
2019-02-22T09:54:50.892Z,29.92
2019-02-22T09:57:19.112Z,27.20
2019-02-22T09:59:47.348Z,26.93
2019-02-22T10:02:15.889Z,29.85
2019-02-22T10:04:54.522Z,22.30
2019-02-22T10:07:14.331Z,24.40
2019-02-22T10:09:42.571Z,20.90
2019-02-22T10:12:10.795Z,23.45
2019-02-22T10:14:39.040Z,22.55
2019-02-22T10:17:07.264Z,24.98
2019-02-22T10:19:35.504Z,22.30
2019-02-22T10:22:03.734Z,22.07
2019-02-22T10:24:31.988Z,20.30
2019-02-22T10:27:00.220Z,20.20
2019-02-22T10:29:28.704Z,20.25
2019-02-22T10:31:56.948Z,19.37
2019-02-22T10:34:25.183Z,24.05
2019-02-22T10:36:53.404Z,23.05
2019-02-22T10:39:21.969Z,20.68
2019-02-22T10:41:50.197Z,21.65
2019-02-22T10:44:18.436Z,19.30
2019-02-22T10:46:46.669Z,20.02
2019-02-22T10:49:15.229Z,21.75
2019-02-22T10:51:43.448Z,20.90
2019-02-22T10:54:11.694Z,18.50
2019-02-22T10:56:39.921Z,19.37
2019-02-22T10:59:08.160Z,18.65
2019-02-22T11:01:36.384Z,20.10
2019-02-22T11:04:04.620Z,18.87
2019-02-22T11:06:33.144Z,20.27
2019-02-22T11:09:01.394Z,20.57
2019-02-22T11:11:29.608Z,20.62
2019-02-22T11:13:57.884Z,20.43
2019-02-22T11:16:26.116Z,21.48
2019-02-22T11:18:54.424Z,21.52
2019-02-22T11:21:22.718Z,19.92
2019-02-22T11:23:50.964Z,19.60
2019-02-22T11:26:19.478Z,20.43
2019-02-22T11:28:47.707Z,20.60
2019-02-22T11:31:17.342Z,17.65
2019-02-22T11:33:46.078Z,19.15
2019-02-22T11:36:14.305Z,19.23
2019-02-22T11:38:42.532Z,22.42
2019-02-22T11:41:11.038Z,20.48
2019-02-22T11:43:39.265Z,18.90
2019-02-22T11:46:07.507Z,21.42
2019-02-22T11:48:35.812Z,17.92
2019-02-22T11:51:04.300Z,19.30
2019-02-22T11:53:32.557Z,19.90
2019-02-22T11:56:00.844Z,21.27
2019-02-22T11:58:29.370Z,21.70
2019-02-22T12:00:57.604Z,17.60
2019-02-22T12:03:25.836Z,19.42
2019-02-22T12:05:54.080Z,19.07
2019-02-22T12:08:22.630Z,19.52
2019-02-22T12:10:50.869Z,18.92
2019-02-22T12:13:19.100Z,20.75
2019-02-22T12:15:47.597Z,21.07
2019-02-22T12:18:16.094Z,23.75
2019-02-22T12:20:44.584Z,19.17
2019-02-22T12:23:13.084Z,21.23
2019-02-22T12:25:41.310Z,21.70
2019-02-22T12:28:09.898Z,19.02
2019-02-22T12:30:38.127Z,25.12
2019-02-22T12:33:06.640Z,20.40
2019-02-22T12:35:34.956Z,17.67
2019-02-22T12:38:03.184Z,20.65
2019-02-22T12:40:31.423Z,20.02
2019-02-22T12:42:59.649Z,19.07
2019-02-22T12:45:28.189Z,25.80
2019-02-22T12:47:56.446Z,24.20
2019-02-22T12:50:24.663Z,24.92
2019-02-22T12:52:53.172Z,22.02
2019-02-22T12:55:21.397Z,25.85
2019-02-22T12:57:49.644Z,22.32
2019-02-22T13:00:19.157Z,19.70
2019-02-22T13:02:47.376Z,23.12
2019-02-22T13:05:18.058Z,19.37
2019-02-22T13:07:46.290Z,21.12
2019-02-22T13:10:14.523Z,21.93
2019-02-22T13:12:42.756Z,15.95
2019-02-22T13:15:14.558Z,17.12
2019-02-22T13:17:43.386Z,15.80
2019-02-22T13:20:11.923Z,15.23
2019-02-22T13:22:40.144Z,20.23
2019-02-22T13:25:09.620Z,15.58
2019-02-22T13:27:38.122Z,15.70
2019-02-22T13:30:12.402Z,14.68
2019-02-22T13:32:40.652Z,16.57
2019-02-22T13:35:10.940Z,19.32
2019-02-22T13:37:38.844Z,16.87
2019-02-22T13:40:10.129Z,19.87
2019-02-22T13:42:38.358Z,15.65
2019-02-22T13:45:09.369Z,15.93
2019-02-22T13:47:37.606Z,14.20
2019-02-22T13:50:09.141Z,15.63
2019-02-22T13:52:37.809Z,16.60
2019-02-22T13:55:07.397Z,13.10
2019-02-22T13:57:35.652Z,13.78
2019-02-22T14:00:05.936Z,14.07
2019-02-22T14:02:34.160Z,12.65
2019-02-22T14:05:02.422Z,12.95
2019-02-22T14:07:30.637Z,11.88
2019-02-22T14:09:58.872Z,11.40
2019-02-22T14:12:27.103Z,12.40
2019-02-22T14:14:55.688Z,12.43
2019-02-22T14:17:23.912Z,13.03
2019-02-22T14:19:52.174Z,12.50
2019-02-22T14:22:20.657Z,13.95
2019-02-22T14:24:48.919Z,13.32
2019-02-22T14:27:17.145Z,13.10
2019-02-22T14:29:45.376Z,19.50
2019-02-22T14:32:13.600Z,13.18
2019-02-22T14:34:42.106Z,15.72
2019-02-22T14:37:10.355Z,11.50
2019-02-22T14:39:38.961Z,11.93
2019-02-22T14:42:07.336Z,14.18
2019-02-22T14:44:35.872Z,17.00
2019-02-22T14:47:04.101Z,10.80
2019-02-22T14:49:32.333Z,13.93
2019-02-22T14:52:00.557Z,11.70
2019-02-22T14:54:29.130Z,15.23
2019-02-22T14:56:57.642Z,14.68
2019-02-22T14:59:25.871Z,16.07
2019-02-22T15:01:54.409Z,11.48
2019-02-22T15:04:22.658Z,12.98
2019-02-22T15:06:51.189Z,17.02
2019-02-22T15:09:19.784Z,16.90
2019-02-22T15:11:48.009Z,15.55
2019-02-22T15:14:18.106Z,14.40
2019-02-22T15:16:50.780Z,14.10
2019-02-22T15:19:22.108Z,12.30
2019-02-22T15:21:49.850Z,13.70
2019-02-22T15:24:18.077Z,11.57
2019-02-22T15:26:46.312Z,17.87
2019-02-22T15:29:14.796Z,9.48
2019-02-22T15:31:43.298Z,9.65
2019-02-22T15:34:11.525Z,12.28
2019-02-22T15:36:40.079Z,13.72
2019-02-22T15:39:08.308Z,10.80
2019-02-22T15:41:36.939Z,10.55
2019-02-22T15:44:05.788Z,13.20
2019-02-22T15:46:36.924Z,10.75
2019-02-22T15:49:06.985Z,8.98
2019-02-22T15:54:04.350Z,11.38
2019-02-22T15:56:32.640Z,10.32
2019-02-22T15:59:01.139Z,9.50
2019-02-22T16:01:29.380Z,10.72
2019-02-22T16:04:11.085Z,9.33
2019-02-22T16:06:39.325Z,9.63
2019-02-22T16:09:07.908Z,8.95
2019-02-22T16:11:37.069Z,8.80
2019-02-22T16:14:07.269Z,11.80
2019-02-22T16:16:35.597Z,8.70
2019-02-22T16:19:03.865Z,9.63
2019-02-22T16:21:32.157Z,8.20
2019-02-22T16:24:00.384Z,8.60
2019-02-22T16:26:29.816Z,10.10
2019-02-22T16:28:58.056Z,14.85
2019-02-22T16:31:28.011Z,9.33
2019-02-22T16:33:56.301Z,12.75
2019-02-22T16:36:24.556Z,12.73
2019-02-22T16:38:52.788Z,8.78
2019-02-22T16:41:21.041Z,11.12
2019-02-22T16:43:49.272Z,12.15
2019-02-22T16:46:17.508Z,9.28
2019-02-22T16:48:45.748Z,15.58
2019-02-22T16:51:13.990Z,9.08
2019-02-22T16:53:42.545Z,8.93
2019-02-22T16:56:10.796Z,12.85
2019-02-22T16:58:39.325Z,14.28
2019-02-22T17:01:07.574Z,16.25
2019-02-22T17:03:36.110Z,13.40
2019-02-22T17:06:04.601Z,10.30
2019-02-22T17:08:32.834Z,12.90
2019-02-22T17:11:01.417Z,11.05
2019-02-22T17:13:29.636Z,13.20
2019-02-22T17:15:57.877Z,8.63
2019-02-22T17:18:26.110Z,9.38
2019-02-22T17:20:54.352Z,10.00
2019-02-22T17:23:22.580Z,10.32
2019-02-22T17:25:50.847Z,11.70
2019-02-22T17:28:19.076Z,15.30
2019-02-22T17:30:47.320Z,14.85
2019-02-22T17:33:15.904Z,10.40
2019-02-22T17:35:44.136Z,13.00
2019-02-22T17:38:12.355Z,14.45
2019-02-22T17:40:40.601Z,16.27
2019-02-22T17:43:08.832Z,15.83
2019-02-22T17:45:37.076Z,11.90
2019-02-22T17:48:05.746Z,11.33
2019-02-22T17:50:34.415Z,9.73
2019-02-22T17:53:02.640Z,13.32
2019-02-22T17:55:30.868Z,11.45
2019-02-22T17:57:59.108Z,12.40
2019-02-22T18:00:27.585Z,15.45
2019-02-22T18:02:55.840Z,12.18
2019-02-22T18:05:24.079Z,9.15
2019-02-22T18:07:52.327Z,13.38
2019-02-22T18:10:20.556Z,12.80
2019-02-22T18:12:49.095Z,14.50
2019-02-22T18:15:17.838Z,11.33
2019-02-22T18:17:47.242Z,9.33
2019-02-22T18:20:15.777Z,8.20
2019-02-22T18:22:44.046Z,10.78
2019-02-22T18:25:12.620Z,12.78
2019-02-22T18:27:40.864Z,12.28
2019-02-22T18:30:12.365Z,18.52
2019-02-22T18:32:40.596Z,11.93
2019-02-22T18:35:08.987Z,8.73
2019-02-22T18:37:37.629Z,9.28
2019-02-22T18:40:14.332Z,10.08
2019-02-22T18:42:42.829Z,11.75
2019-02-22T18:45:11.300Z,13.15
2019-02-22T18:47:39.541Z,10.20
2019-02-22T18:50:09.906Z,13.68
2019-02-22T18:52:38.151Z,8.30
2019-02-22T18:55:09.180Z,9.00
2019-02-22T18:57:37.409Z,7.12
2019-02-22T19:00:19.906Z,8.33
2019-02-22T19:02:48.433Z,9.10
2019-02-22T19:05:16.652Z,6.58
2019-02-22T19:07:44.892Z,12.45
2019-02-22T19:10:14.552Z,8.88
2019-02-22T19:12:42.791Z,13.22
2019-02-22T19:15:12.557Z,13.48
2019-02-22T19:17:41.106Z,10.72
2019-02-22T19:20:11.466Z,10.60
2019-02-22T19:22:39.708Z,9.65
2019-02-22T19:25:09.041Z,11.88
2019-02-22T19:27:37.280Z,9.58
2019-02-22T19:30:11.717Z,8.28
2019-02-22T19:32:40.318Z,31.62
2019-02-22T19:35:08.540Z,11.90
2019-02-22T19:37:37.091Z,9.58
2019-02-22T19:40:10.664Z,7.42
2019-02-22T19:42:42.004Z,8.00
2019-02-22T19:45:11.456Z,7.62
2019-02-22T19:47:42.055Z,7.25
2019-02-22T19:50:11.685Z,8.88
2019-02-22T19:52:39.921Z,8.68
2019-02-22T19:55:11.151Z,7.83
2019-02-22T19:57:39.392Z,6.65
2019-02-22T20:00:10.912Z,7.22
2019-02-22T20:02:39.156Z,8.63
2019-02-22T20:05:08.812Z,9.68
2019-02-22T20:07:37.302Z,11.93
2019-02-22T20:10:17.348Z,8.48
2019-02-22T20:12:39.205Z,8.30
2019-02-22T20:15:10.813Z,10.95
2019-02-22T20:17:40.315Z,11.15
2019-02-22T20:20:13.639Z,10.95
2019-02-22T20:22:41.873Z,8.20
2019-02-22T20:25:10.889Z,8.53
2019-02-22T20:27:39.386Z,8.80
2019-02-22T20:30:14.611Z,10.10
2019-02-22T20:32:42.970Z,8.95
2019-02-22T20:35:13.985Z,8.10
2019-02-22T20:37:51.797Z,7.37
2019-02-22T20:40:12.523Z,10.23
2019-02-22T20:42:40.768Z,18.37
2019-02-22T20:45:11.048Z,10.45
2019-02-22T20:47:39.283Z,11.15
2019-02-22T20:50:11.875Z,12.25
2019-02-22T20:52:40.412Z,9.48
2019-02-22T20:55:10.542Z,10.72
2019-02-22T20:57:39.041Z,8.93
2019-02-22T21:00:22.425Z,9.23
2019-02-22T21:02:50.663Z,15.55
2019-02-22T21:05:22.404Z,13.60
2019-02-22T21:07:50.653Z,10.25
2019-02-22T21:10:19.913Z,9.65
2019-02-22T21:12:48.156Z,9.28
2019-02-22T21:15:16.385Z,9.83
2019-02-22T21:17:44.669Z,11.68
2019-02-22T21:20:14.831Z,10.25
2019-02-22T21:22:43.070Z,10.90
2019-02-22T21:25:12.659Z,13.32
2019-02-22T21:27:41.140Z,11.55
2019-02-22T21:30:15.587Z,13.18
2019-02-22T21:32:44.167Z,10.82
2019-02-22T21:35:12.480Z,12.10
2019-02-22T21:37:42.256Z,13.38
2019-02-22T21:40:11.430Z,12.58
2019-02-22T21:42:39.660Z,10.75
2019-02-22T21:45:12.971Z,10.65
2019-02-22T21:47:41.494Z,10.75
2019-02-22T21:50:14.593Z,9.65
2019-02-22T21:52:43.082Z,12.23
2019-02-22T21:55:12.340Z,10.75
2019-02-22T21:57:40.888Z,10.58
2019-02-22T22:00:17.062Z,10.63
2019-02-22T22:02:45.567Z,10.82
2019-02-22T22:05:13.861Z,13.83
2019-02-22T22:07:42.210Z,10.98
2019-02-22T22:10:10.428Z,10.75
2019-02-22T22:12:38.916Z,12.03
2019-02-22T22:15:11.704Z,14.35
2019-02-22T22:17:39.936Z,10.40
2019-02-22T22:20:09.291Z,12.85
2019-02-22T22:22:37.514Z,11.22
2019-02-22T22:25:09.105Z,10.58
2019-02-22T22:27:37.744Z,11.33
2019-02-22T22:30:13.837Z,10.23
2019-02-22T22:32:42.081Z,10.55
2019-02-22T22:35:12.153Z,11.30
2019-02-22T22:37:40.380Z,9.60
2019-02-22T22:40:10.048Z,11.40
2019-02-22T22:42:38.265Z,11.30
2019-02-22T22:45:09.365Z,9.73
2019-02-22T22:50:08.161Z,11.85
2019-02-22T22:52:36.396Z,11.12
2019-02-22T22:55:05.941Z,9.90
2019-02-22T22:57:34.161Z,11.03
2019-02-22T23:00:02.729Z,9.30
2019-02-22T23:02:30.948Z,10.95
2019-02-22T23:04:59.178Z,11.83
2019-02-22T23:07:27.392Z,10.30
2019-02-22T23:09:55.620Z,10.90
2019-02-22T23:12:23.836Z,13.10
2019-02-22T23:14:52.071Z,10.35
2019-02-22T23:17:20.284Z,10.13
2019-02-22T23:19:48.840Z,10.28
2019-02-22T23:22:17.056Z,11.57
2019-02-22T23:24:45.289Z,9.40
2019-02-22T23:27:13.805Z,9.85
2019-02-22T23:29:42.301Z,11.55
2019-02-22T23:32:10.593Z,9.98
2019-02-22T23:34:38.840Z,11.33
2019-02-22T23:37:07.055Z,12.47
2019-02-22T23:39:35.284Z,11.15
2019-02-22T23:42:03.748Z,10.35
2019-02-22T23:44:31.998Z,11.88
2019-02-22T23:47:00.216Z,12.15
2019-02-22T23:49:28.473Z,11.83
2019-02-22T23:51:56.700Z,11.83
2019-02-22T23:54:25.192Z,11.65
2019-02-22T23:56:53.420Z,10.85
2019-02-22T23:59:21.984Z,10.48
